Aérodrome :
LOGIN :

S'inscrire | Disclaimer

   EN    FR    IT 

 










Légende :    VFR   VFR Marginal   IFR   IFR Intensif   IFR Très Intensif
Visi : 
Plafond : 
>= 8 km
>= 3000ft
5 à 8 km
1000 à 3000 ft
1500m à 5 km
500 à 1000 ft
800 à 1500m
200 à 500 ft
< 800m
< 200 ft
Symboles :   Orages  Brouillard  Fortes neiges  Fortes précipitations  Vent > 20 kt
SIGMETs :   Divers  Orages  Givrage  Turbulence  Onde Orograph.  Cendres Volcan.






- Altitude de l'aérodrome : 978 ft
- Code IATA : LNZ


LOWL - Linz

DERNIER METAR :
  • 231850Z AUTO 10007KT 9999 FEW040CB 19/11 Q1015 NOSIG

METARs EXPIRÉS :
  • 231820Z AUTO 11008KT 9999 FEW040CB 19/12 Q1014 NOSIG
  • 231750Z AUTO 11009KT 080V140 9999 FEW040CB 20/11 Q1014 NOSIG
  • 231720Z AUTO 11008KT 9999 FEW040CB 21/11 Q1013 NOSIG
  • 231650Z AUTO 13007KT 100V170 CAVOK 22/10 Q1013 NOSIG
  • 231620Z AUTO 10007KT 070V130 9999 NCD 22/09 Q1013 NOSIG
  • 231550Z AUTO 08007KT 060V120 9999 NCD 22/12 Q1013 NOSIG
  • 231520Z AUTO 11007KT 070V140 9999 FEW050 22/09 Q1013 NOSIG
  • 231450Z AUTO 12006KT 090V150 9999 SCT050 22/10 Q1014 NOSIG
  • 231420Z AUTO 02004KT 310V070 9999 FEW050 23/11 Q1014 NOSIG
  • 231350Z AUTO VRB04KT 9999 NCD 22/10 Q1014 NOSIG

TAF AMD TAF LOWL
Valide du 23 à 18h jusqu'au 24 à 18h UTC


231838Z 2318/2418 VRB05KT 9999 FEW050 TX21/2414Z TN13/2403Z
TEMPO 2318/2321 10010KT
TEMPO 2318/2323 -SHRA FEW050CB
PROB30
TEMPO 2320/2322 VRB15G25KT TSRA SCT030CB BKN050
TEMPO 2323/2405 -SHRA



MET'MAP, la Météo Aéronautique d'un coup d'oeil ! - Copyright ORBIFLY Décembre 2007 - Disclaimer

ORBIFLY MET'MAP TEAM :

Programmation & Développement : Alexandra Zaïnal
Sur une idée originale de : Baudouin d'Aumeries
Soutien technique & logistique : Manuel Goepfert
Assistance : Marc-Olivier Méhu




SOURCES & CREDITS :

   NOAA